West Olive, Michigan
Current Conditions -  °F | °C
As of 12:53 AM on Thursday 29 Jan 2015 (Local Time) from KBIV Reporting Station
Clear Clear  
Wind Chill: 18°   Ceiling: Unl
Heat Index: 29°   Visibility: 10mi
Dew Point: 18°   Wind: 14mph
Humidity: 64%   Direction: 140°SE
Pressure: 29.91"   Gusts: NA
Location:  42.92°N, 86.15°W
Report Text: KBIV 290553Z AUTO 14012KT 10SM CLR M02/M08 A2991 RMK AO2 SLP137 T10171078 11011 21017 58027
Loading
Personal Weather Stations






























Interactive Weather Map New forecast layout! Learn more

10-Day Weather Forecast

Advertisements
Track Severe Weather on mobile